sensor_id;sensor_type;location;lat;lon;timestamp;temperature;humidity
71563;DHT22;59391;52.504;13.438;2023-03-23T00:00:59;15.20;51.50
71563;DHT22;59391;52.504;13.438;2023-03-23T00:03:26;15.10;51.60
71563;DHT22;59391;52.504;13.438;2023-03-23T00:05:54;15.10;51.50
71563;DHT22;59391;52.504;13.438;2023-03-23T00:08:25;15.10;51.60
71563;DHT22;59391;52.504;13.438;2023-03-23T00:10:52;15.10;51.60
71563;DHT22;59391;52.504;13.438;2023-03-23T00:13:25;15.00;51.70
71563;DHT22;59391;52.504;13.438;2023-03-23T00:15:51;15.00;51.70
71563;DHT22;59391;52.504;13.438;2023-03-23T00:18:18;15.00;51.70
71563;DHT22;59391;52.504;13.438;2023-03-23T00:20:52;14.90;51.80
71563;DHT22;59391;52.504;13.438;2023-03-23T00:23:23;14.90;51.80
71563;DHT22;59391;52.504;13.438;2023-03-23T00:25:55;14.90;51.70
71563;DHT22;59391;52.504;13.438;2023-03-23T00:28:26;14.90;51.80
71563;DHT22;59391;52.504;13.438;2023-03-23T00:31:00;14.80;51.80
71563;DHT22;59391;52.504;13.438;2023-03-23T00:33:33;14.80;51.90
71563;DHT22;59391;52.504;13.438;2023-03-23T00:36:13;14.80;51.90
71563;DHT22;59391;52.504;13.438;2023-03-23T00:38:40;14.80;52.00
71563;DHT22;59391;52.504;13.438;2023-03-23T00:41:07;14.80;52.00
71563;DHT22;59391;52.504;13.438;2023-03-23T00:43:33;14.70;52.00
71563;DHT22;59391;52.504;13.438;2023-03-23T00:46:03;14.70;52.00
71563;DHT22;59391;52.504;13.438;2023-03-23T00:48:34;14.70;52.10
71563;DHT22;59391;52.504;13.438;2023-03-23T00:51:01;14.70;52.10
71563;DHT22;59391;52.504;13.438;2023-03-23T00:53:32;14.70;52.20
71563;DHT22;59391;52.504;13.438;2023-03-23T00:55:58;14.70;52.10
71563;DHT22;59391;52.504;13.438;2023-03-23T00:58:24;14.70;52.10
71563;DHT22;59391;52.504;13.438;2023-03-23T01:00:50;14.60;52.20
71563;DHT22;59391;52.504;13.438;2023-03-23T01:03:15;14.60;52.20
71563;DHT22;59391;52.504;13.438;2023-03-23T01:05:44;14.60;52.20
71563;DHT22;59391;52.504;13.438;2023-03-23T01:08:13;14.60;52.20
71563;DHT22;59391;52.504;13.438;2023-03-23T01:10:39;14.60;52.20
71563;DHT22;59391;52.504;13.438;2023-03-23T01:13:06;14.60;52.10
71563;DHT22;59391;52.504;13.438;2023-03-23T01:15:33;14.50;52.10
71563;DHT22;59391;52.504;13.438;2023-03-23T01:17:59;14.50;52.20
71563;DHT22;59391;52.504;13.438;2023-03-23T01:20:25;14.50;52.20
71563;DHT22;59391;52.504;13.438;2023-03-23T01:22:59;14.50;52.30
71563;DHT22;59391;52.504;13.438;2023-03-23T01:25:30;14.50;52.30
71563;DHT22;59391;52.504;13.438;2023-03-23T01:27:58;14.50;52.30
71563;DHT22;59391;52.504;13.438;2023-03-23T01:30:24;14.40;52.40
71563;DHT22;59391;52.504;13.438;2023-03-23T01:32:51;14.40;52.40
71563;DHT22;59391;52.504;13.438;2023-03-23T01:35:18;14.40;52.50
71563;DHT22;59391;52.504;13.438;2023-03-23T01:37:44;14.40;52.50
71563;DHT22;59391;52.504;13.438;2023-03-23T01:40:10;14.40;52.50
71563;DHT22;59391;52.504;13.438;2023-03-23T01:42:38;14.40;52.60
71563;DHT22;59391;52.504;13.438;2023-03-23T01:45:26;14.40;52.60
71563;DHT22;59391;52.504;13.438;2023-03-23T01:48:06;14.40;52.60
71563;DHT22;59391;52.504;13.438;2023-03-23T01:50:41;14.40;52.70
71563;DHT22;59391;52.504;13.438;2023-03-23T01:53:12;14.40;52.70
71563;DHT22;59391;52.504;13.438;2023-03-23T01:55:40;14.30;52.80
71563;DHT22;59391;52.504;13.438;2023-03-23T01:58:09;14.30;52.90
71563;DHT22;59391;52.504;13.438;2023-03-23T02:00:38;14.30;53.00
71563;DHT22;59391;52.504;13.438;2023-03-23T02:03:06;14.30;53.00
71563;DHT22;59391;52.504;13.438;2023-03-23T02:05:37;14.20;53.10
71563;DHT22;59391;52.504;13.438;2023-03-23T02:08:06;14.20;53.10
71563;DHT22;59391;52.504;13.438;2023-03-23T02:10:34;14.20;53.00
71563;DHT22;59391;52.504;13.438;2023-03-23T02:13:02;14.20;53.10
71563;DHT22;59391;52.504;13.438;2023-03-23T02:15:59;14.20;53.10
71563;DHT22;59391;52.504;13.438;2023-03-23T02:22:14;14.20;53.00
71563;DHT22;59391;52.504;13.438;2023-03-23T02:24:57;14.20;53.00
71563;DHT22;59391;52.504;13.438;2023-03-23T02:27:48;14.20;53.00
71563;DHT22;59391;52.504;13.438;2023-03-23T02:31:03;14.20;53.10
71563;DHT22;59391;52.504;13.438;2023-03-23T02:34:58;14.10;53.20
71563;DHT22;59391;52.504;13.438;2023-03-23T02:37:18;14.10;53.20
71563;DHT22;59391;52.504;13.438;2023-03-23T02:40:02;14.10;53.20
71563;DHT22;59391;52.504;13.438;2023-03-23T02:42:51;14.10;53.20
71563;DHT22;59391;52.504;13.438;2023-03-23T02:45:21;14.10;53.20
71563;DHT22;59391;52.504;13.438;2023-03-23T02:47:52;14.20;53.20
71563;DHT22;59391;52.504;13.438;2023-03-23T02:50:22;14.20;53.10
71563;DHT22;59391;52.504;13.438;2023-03-23T02:52:50;14.20;53.40
71563;DHT22;59391;52.504;13.438;2023-03-23T02:55:19;14.20;53.70
71563;DHT22;59391;52.504;13.438;2023-03-23T02:57:51;14.10;54.60
71563;DHT22;59391;52.504;13.438;2023-03-23T03:00:18;14.10;55.40
71563;DHT22;59391;52.504;13.438;2023-03-23T03:02:48;14.10;55.80
71563;DHT22;59391;52.504;13.438;2023-03-23T03:10:52;14.00;55.90
71563;DHT22;59391;52.504;13.438;2023-03-23T03:13:49;14.00;56.30
71563;DHT22;59391;52.504;13.438;2023-03-23T03:16:29;14.00;55.60
71563;DHT22;59391;52.504;13.438;2023-03-23T03:19:22;14.00;56.10
71563;DHT22;59391;52.504;13.438;2023-03-23T03:21:53;14.00;56.00
71563;DHT22;59391;52.504;13.438;2023-03-23T03:24:21;14.00;56.30
71563;DHT22;59391;52.504;13.438;2023-03-23T03:26:52;14.00;55.90
71563;DHT22;59391;52.504;13.438;2023-03-23T03:29:26;14.00;56.00
71563;DHT22;59391;52.504;13.438;2023-03-23T03:31:56;14.00;56.20
71563;DHT22;59391;52.504;13.438;2023-03-23T03:34:24;14.00;56.70
71563;DHT22;59391;52.504;13.438;2023-03-23T03:36:52;14.00;56.90
71563;DHT22;59391;52.504;13.438;2023-03-23T03:39:20;14.00;56.60
71563;DHT22;59391;52.504;13.438;2023-03-23T03:41:47;14.00;56.10
71563;DHT22;59391;52.504;13.438;2023-03-23T03:44:13;14.00;56.00
71563;DHT22;59391;52.504;13.438;2023-03-23T03:46:40;14.00;56.10
71563;DHT22;59391;52.504;13.438;2023-03-23T03:49:07;14.10;56.20
71563;DHT22;59391;52.504;13.438;2023-03-23T03:51:35;14.10;56.30
71563;DHT22;59391;52.504;13.438;2023-03-23T03:54:01;14.10;56.80
71563;DHT22;59391;52.504;13.438;2023-03-23T03:56:27;14.10;57.20
71563;DHT22;59391;52.504;13.438;2023-03-23T03:58:53;14.10;57.30
71563;DHT22;59391;52.504;13.438;2023-03-23T04:01:20;14.00;57.30
71563;DHT22;59391;52.504;13.438;2023-03-23T04:03:48;14.00;57.20
71563;DHT22;59391;52.504;13.438;2023-03-23T04:06:15;14.00;57.60
71563;DHT22;59391;52.504;13.438;2023-03-23T04:08:41;14.00;57.60
71563;DHT22;59391;52.504;13.438;2023-03-23T04:11:09;14.00;57.90
71563;DHT22;59391;52.504;13.438;2023-03-23T04:13:36;14.00;57.70
71563;DHT22;59391;52.504;13.438;2023-03-23T04:16:02;14.00;57.70
71563;DHT22;59391;52.504;13.438;2023-03-23T04:18:30;14.00;57.80
71563;DHT22;59391;52.504;13.438;2023-03-23T04:20:58;14.00;57.70
71563;DHT22;59391;52.504;13.438;2023-03-23T04:23:25;14.00;57.80
71563;DHT22;59391;52.504;13.438;2023-03-23T04:25:53;14.00;57.70
71563;DHT22;59391;52.504;13.438;2023-03-23T04:28:23;14.00;57.70
71563;DHT22;59391;52.504;13.438;2023-03-23T04:30:59;14.00;57.70
71563;DHT22;59391;52.504;13.438;2023-03-23T04:33:32;14.00;57.80
71563;DHT22;59391;52.504;13.438;2023-03-23T04:36:00;14.00;57.80
71563;DHT22;59391;52.504;13.438;2023-03-23T04:38:35;14.00;57.80
71563;DHT22;59391;52.504;13.438;2023-03-23T04:41:01;14.00;58.00
71563;DHT22;59391;52.504;13.438;2023-03-23T04:43:28;14.00;58.00
71563;DHT22;59391;52.504;13.438;2023-03-23T04:45:59;14.00;58.00
71563;DHT22;59391;52.504;13.438;2023-03-23T04:48:29;14.00;57.80
71563;DHT22;59391;52.504;13.438;2023-03-23T04:51:00;14.10;57.90
71563;DHT22;59391;52.504;13.438;2023-03-23T04:53:33;14.10;58.00
71563;DHT22;59391;52.504;13.438;2023-03-23T04:56:08;14.10;58.00
71563;DHT22;59391;52.504;13.438;2023-03-23T04:58:39;14.10;58.00
71563;DHT22;59391;52.504;13.438;2023-03-23T05:01:12;14.10;58.20
71563;DHT22;59391;52.504;13.438;2023-03-23T05:03:40;14.10;57.90
71563;DHT22;59391;52.504;13.438;2023-03-23T05:06:06;14.10;58.00
71563;DHT22;59391;52.504;13.438;2023-03-23T05:08:33;14.10;57.80
71563;DHT22;59391;52.504;13.438;2023-03-23T05:11:00;14.10;57.50
71563;DHT22;59391;52.504;13.438;2023-03-23T05:13:30;14.10;59.00
71563;DHT22;59391;52.504;13.438;2023-03-23T05:15:55;14.10;60.50
71563;DHT22;59391;52.504;13.438;2023-03-23T05:18:21;14.00;61.30
71563;DHT22;59391;52.504;13.438;2023-03-23T05:20:47;13.90;61.30
71563;DHT22;59391;52.504;13.438;2023-03-23T05:23:18;13.80;61.80
71563;DHT22;59391;52.504;13.438;2023-03-23T05:25:55;13.70;62.70
71563;DHT22;59391;52.504;13.438;2023-03-23T05:28:28;13.60;62.00
71563;DHT22;59391;52.504;13.438;2023-03-23T05:30:56;13.40;64.00
71563;DHT22;59391;52.504;13.438;2023-03-23T05:33:22;13.30;64.20
71563;DHT22;59391;52.504;13.438;2023-03-23T05:35:48;13.30;65.60
71563;DHT22;59391;52.504;13.438;2023-03-23T05:38:15;13.20;65.80
71563;DHT22;59391;52.504;13.438;2023-03-23T05:40:41;13.10;66.10
71563;DHT22;59391;52.504;13.438;2023-03-23T05:43:08;13.10;66.30
71563;DHT22;59391;52.504;13.438;2023-03-23T05:45:34;13.00;67.60
71563;DHT22;59391;52.504;13.438;2023-03-23T05:48:02;12.90;67.70
71563;DHT22;59391;52.504;13.438;2023-03-23T05:50:28;12.90;68.60
71563;DHT22;59391;52.504;13.438;2023-03-23T05:52:55;12.80;68.60
71563;DHT22;59391;52.504;13.438;2023-03-23T05:55:21;12.80;69.80
71563;DHT22;59391;52.504;13.438;2023-03-23T05:57:49;12.70;70.20
71563;DHT22;59391;52.504;13.438;2023-03-23T06:00:15;12.60;71.30
71563;DHT22;59391;52.504;13.438;2023-03-23T06:02:46;12.50;72.10
71563;DHT22;59391;52.504;13.438;2023-03-23T06:05:12;12.40;73.00
71563;DHT22;59391;52.504;13.438;2023-03-23T06:07:39;12.40;73.60
71563;DHT22;59391;52.504;13.438;2023-03-23T06:10:05;12.30;74.20
71563;DHT22;59391;52.504;13.438;2023-03-23T06:12:32;12.20;75.10
71563;DHT22;59391;52.504;13.438;2023-03-23T06:14:59;12.20;75.70
71563;DHT22;59391;52.504;13.438;2023-03-23T06:17:27;12.10;76.40
71563;DHT22;59391;52.504;13.438;2023-03-23T06:19:53;12.10;76.90
71563;DHT22;59391;52.504;13.438;2023-03-23T06:22:19;12.00;77.50
71563;DHT22;59391;52.504;13.438;2023-03-23T06:24:45;12.00;78.20
71563;DHT22;59391;52.504;13.438;2023-03-23T06:27:10;11.90;78.30
71563;DHT22;59391;52.504;13.438;2023-03-23T06:29:36;11.90;78.70
71563;DHT22;59391;52.504;13.438;2023-03-23T06:32:04;11.90;79.10
71563;DHT22;59391;52.504;13.438;2023-03-23T06:34:32;11.90;79.30
71563;DHT22;59391;52.504;13.438;2023-03-23T06:36:58;11.80;79.70
71563;DHT22;59391;52.504;13.438;2023-03-23T06:39:24;11.80;80.20
71563;DHT22;59391;52.504;13.438;2023-03-23T06:41:50;11.80;80.30
71563;DHT22;59391;52.504;13.438;2023-03-23T06:44:16;11.80;80.70
71563;DHT22;59391;52.504;13.438;2023-03-23T06:46:42;11.80;80.70
71563;DHT22;59391;52.504;13.438;2023-03-23T06:49:08;11.80;80.90
71563;DHT22;59391;52.504;13.438;2023-03-23T06:51:35;11.80;81.00
71563;DHT22;59391;52.504;13.438;2023-03-23T06:54:02;11.80;81.40
71563;DHT22;59391;52.504;13.438;2023-03-23T06:56:30;11.80;81.40
71563;DHT22;59391;52.504;13.438;2023-03-23T06:58:56;11.90;81.70
71563;DHT22;59391;52.504;13.438;2023-03-23T07:01:22;11.90;82.00
71563;DHT22;59391;52.504;13.438;2023-03-23T07:03:47;11.90;81.90
71563;DHT22;59391;52.504;13.438;2023-03-23T07:06:14;12.00;81.70
71563;DHT22;59391;52.504;13.438;2023-03-23T07:08:43;11.90;82.10
71563;DHT22;59391;52.504;13.438;2023-03-23T07:11:08;12.00;81.80
71563;DHT22;59391;52.504;13.438;2023-03-23T07:13:36;12.00;82.30
71563;DHT22;59391;52.504;13.438;2023-03-23T07:16:05;12.00;82.20
71563;DHT22;59391;52.504;13.438;2023-03-23T07:18:32;12.00;82.40
71563;DHT22;59391;52.504;13.438;2023-03-23T07:20:57;12.00;82.00
71563;DHT22;59391;52.504;13.438;2023-03-23T07:23:23;12.00;82.10
71563;DHT22;59391;52.504;13.438;2023-03-23T07:25:49;12.00;82.00
71563;DHT22;59391;52.504;13.438;2023-03-23T07:28:15;12.10;82.40
71563;DHT22;59391;52.504;13.438;2023-03-23T07:30:41;12.00;82.40
71563;DHT22;59391;52.504;13.438;2023-03-23T07:33:08;12.10;82.70
71563;DHT22;59391;52.504;13.438;2023-03-23T07:35:35;12.00;82.60
71563;DHT22;59391;52.504;13.438;2023-03-23T07:38:02;12.00;82.90
71563;DHT22;59391;52.504;13.438;2023-03-23T07:40:29;12.00;82.90
71563;DHT22;59391;52.504;13.438;2023-03-23T07:42:58;12.10;82.50
71563;DHT22;59391;52.504;13.438;2023-03-23T07:45:25;12.00;83.20
71563;DHT22;59391;52.504;13.438;2023-03-23T07:47:52;12.10;83.10
71563;DHT22;59391;52.504;13.438;2023-03-23T07:50:18;12.10;83.80
71563;DHT22;59391;52.504;13.438;2023-03-23T07:52:50;12.10;83.60
71563;DHT22;59391;52.504;13.438;2023-03-23T07:55:17;12.10;83.50
71563;DHT22;59391;52.504;13.438;2023-03-23T07:57:45;12.10;83.80
71563;DHT22;59391;52.504;13.438;2023-03-23T08:00:13;12.20;84.70
71563;DHT22;59391;52.504;13.438;2023-03-23T08:02:46;12.20;83.20
71563;DHT22;59391;52.504;13.438;2023-03-23T08:05:15;12.20;82.70
71563;DHT22;59391;52.504;13.438;2023-03-23T08:07:43;12.30;84.10
71563;DHT22;59391;52.504;13.438;2023-03-23T08:10:12;12.40;83.80
71563;DHT22;59391;52.504;13.438;2023-03-23T08:12:39;12.40;84.10
71563;DHT22;59391;52.504;13.438;2023-03-23T08:15:08;12.40;84.30
71563;DHT22;59391;52.504;13.438;2023-03-23T08:17:41;12.50;84.60
71563;DHT22;59391;52.504;13.438;2023-03-23T08:20:09;12.60;85.00
71563;DHT22;59391;52.504;13.438;2023-03-23T08:22:48;12.60;84.80
71563;DHT22;59391;52.504;13.438;2023-03-23T08:25:36;12.60;84.10
71563;DHT22;59391;52.504;13.438;2023-03-23T08:28:03;12.60;84.00
71563;DHT22;59391;52.504;13.438;2023-03-23T08:30:30;12.70;84.00
71563;DHT22;59391;52.504;13.438;2023-03-23T08:32:59;12.70;82.50
71563;DHT22;59391;52.504;13.438;2023-03-23T08:35:26;12.70;82.80
71563;DHT22;59391;52.504;13.438;2023-03-23T08:37:53;12.70;83.50
71563;DHT22;59391;52.504;13.438;2023-03-23T08:40:22;12.70;83.10
71563;DHT22;59391;52.504;13.438;2023-03-23T08:42:50;12.70;82.20
71563;DHT22;59391;52.504;13.438;2023-03-23T08:45:21;12.70;82.30
71563;DHT22;59391;52.504;13.438;2023-03-23T08:47:49;12.80;83.30
71563;DHT22;59391;52.504;13.438;2023-03-23T08:50:19;12.90;83.50
71563;DHT22;59391;52.504;13.438;2023-03-23T08:52:48;12.90;83.20
71563;DHT22;59391;52.504;13.438;2023-03-23T08:55:15;13.00;83.50
71563;DHT22;59391;52.504;13.438;2023-03-23T08:57:44;13.10;82.60
71563;DHT22;59391;52.504;13.438;2023-03-23T09:00:13;13.20;82.90
71563;DHT22;59391;52.504;13.438;2023-03-23T09:02:49;13.20;83.20
71563;DHT22;59391;52.504;13.438;2023-03-23T09:05:20;13.30;81.60
71563;DHT22;59391;52.504;13.438;2023-03-23T09:07:49;13.30;80.10
71563;DHT22;59391;52.504;13.438;2023-03-23T09:10:16;13.30;82.20
71563;DHT22;59391;52.504;13.438;2023-03-23T09:12:44;13.50;82.80
71563;DHT22;59391;52.504;13.438;2023-03-23T09:15:12;13.50;82.50
71563;DHT22;59391;52.504;13.438;2023-03-23T09:17:42;13.60;82.30
71563;DHT22;59391;52.504;13.438;2023-03-23T09:20:12;13.60;78.80
71563;DHT22;59391;52.504;13.438;2023-03-23T09:22:41;13.60;79.70
71563;DHT22;59391;52.504;13.438;2023-03-23T09:25:10;13.60;78.20
71563;DHT22;59391;52.504;13.438;2023-03-23T09:27:39;13.70;76.10
71563;DHT22;59391;52.504;13.438;2023-03-23T09:30:07;13.70;78.10
71563;DHT22;59391;52.504;13.438;2023-03-23T09:32:38;13.80;77.70
71563;DHT22;59391;52.504;13.438;2023-03-23T09:35:06;13.80;77.10
71563;DHT22;59391;52.504;13.438;2023-03-23T09:37:34;13.80;78.10
71563;DHT22;59391;52.504;13.438;2023-03-23T09:40:02;13.80;77.30
71563;DHT22;59391;52.504;13.438;2023-03-23T09:42:37;13.90;77.30
71563;DHT22;59391;52.504;13.438;2023-03-23T09:48:29;14.00;78.70
71563;DHT22;59391;52.504;13.438;2023-03-23T09:54:23;14.40;81.10
71563;DHT22;59391;52.504;13.438;2023-03-23T09:56:50;14.60;79.90
71563;DHT22;59391;52.504;13.438;2023-03-23T09:59:26;14.70;74.70
71563;DHT22;59391;52.504;13.438;2023-03-23T10:02:02;14.80;75.50
71563;DHT22;59391;52.504;13.438;2023-03-23T10:04:56;14.80;73.90
71563;DHT22;59391;52.504;13.438;2023-03-23T10:07:40;14.80;71.30
71563;DHT22;59391;52.504;13.438;2023-03-23T10:10:13;14.80;72.60
71563;DHT22;59391;52.504;13.438;2023-03-23T10:12:54;14.90;68.40
71563;DHT22;59391;52.504;13.438;2023-03-23T10:15:35;14.80;71.10
71563;DHT22;59391;52.504;13.438;2023-03-23T10:18:13;15.00;71.10
71563;DHT22;59391;52.504;13.438;2023-03-23T10:20:55;15.00;73.60
71563;DHT22;59391;52.504;13.438;2023-03-23T10:23:48;15.10;70.70
71563;DHT22;59391;52.504;13.438;2023-03-23T10:26:52;15.20;73.90
71563;DHT22;59391;52.504;13.438;2023-03-23T10:29:35;15.30;74.90
71563;DHT22;59391;52.504;13.438;2023-03-23T10:32:15;15.40;72.10
71563;DHT22;59391;52.504;13.438;2023-03-23T10:34:59;15.50;71.70
71563;DHT22;59391;52.504;13.438;2023-03-23T10:37:38;15.50;70.40
71563;DHT22;59391;52.504;13.438;2023-03-23T10:40:16;15.60;69.80
71563;DHT22;59391;52.504;13.438;2023-03-23T10:42:44;15.60;69.90
71563;DHT22;59391;52.504;13.438;2023-03-23T10:45:16;15.70;70.40
71563;DHT22;59391;52.504;13.438;2023-03-23T10:48:13;15.70;66.00
71563;DHT22;59391;52.504;13.438;2023-03-23T10:50:48;15.70;62.10
71563;DHT22;59391;52.504;13.438;2023-03-23T10:53:23;15.70;69.40
71563;DHT22;59391;52.504;13.438;2023-03-23T10:55:56;15.80;69.40
71563;DHT22;59391;52.504;13.438;2023-03-23T10:58:26;15.80;66.90
71563;DHT22;59391;52.504;13.438;2023-03-23T11:00:55;15.90;65.90
71563;DHT22;59391;52.504;13.438;2023-03-23T11:03:39;15.90;63.20
71563;DHT22;59391;52.504;13.438;2023-03-23T11:06:12;15.90;66.40
71563;DHT22;59391;52.504;13.438;2023-03-23T11:08:52;15.90;65.10
71563;DHT22;59391;52.504;13.438;2023-03-23T11:14:16;15.90;62.30
71563;DHT22;59391;52.504;13.438;2023-03-23T11:16:59;15.90;65.20
71563;DHT22;59391;52.504;13.438;2023-03-23T11:19:37;15.90;65.70
71563;DHT22;59391;52.504;13.438;2023-03-23T11:22:15;15.90;62.10
71563;DHT22;59391;52.504;13.438;2023-03-23T11:24:53;15.90;65.80
71563;DHT22;59391;52.504;13.438;2023-03-23T11:27:27;16.00;64.70
71563;DHT22;59391;52.504;13.438;2023-03-23T11:29:56;16.00;65.40
71563;DHT22;59391;52.504;13.438;2023-03-23T11:32:35;16.00;62.90
71563;DHT22;59391;52.504;13.438;2023-03-23T11:35:07;15.90;62.90
71563;DHT22;59391;52.504;13.438;2023-03-23T11:37:44;16.00;63.60
71563;DHT22;59391;52.504;13.438;2023-03-23T11:40:16;16.00;63.70
71563;DHT22;59391;52.504;13.438;2023-03-23T11:42:59;16.00;62.40
71563;DHT22;59391;52.504;13.438;2023-03-23T11:45:36;16.10;62.90
71563;DHT22;59391;52.504;13.438;2023-03-23T11:48:18;16.20;65.00
71563;DHT22;59391;52.504;13.438;2023-03-23T11:51:18;16.30;64.20
71563;DHT22;59391;52.504;13.438;2023-03-23T11:54:04;16.40;58.70
71563;DHT22;59391;52.504;13.438;2023-03-23T11:56:40;16.50;62.70
71563;DHT22;59391;52.504;13.438;2023-03-23T11:59:34;16.60;62.20
71563;DHT22;59391;52.504;13.438;2023-03-23T12:02:32;16.70;62.60
71563;DHT22;59391;52.504;13.438;2023-03-23T12:05:33;16.70;58.80
71563;DHT22;59391;52.504;13.438;2023-03-23T12:14:33;16.90;56.90
71563;DHT22;59391;52.504;13.438;2023-03-23T12:19:55;16.90;59.30
71563;DHT22;59391;52.504;13.438;2023-03-23T12:28:47;16.80;59.80
71563;DHT22;59391;52.504;13.438;2023-03-23T12:31:37;16.80;59.20
71563;DHT22;59391;52.504;13.438;2023-03-23T12:34:20;16.80;57.50
71563;DHT22;59391;52.504;13.438;2023-03-23T12:43:48;16.90;61.40
71563;DHT22;59391;52.504;13.438;2023-03-23T12:46:30;16.90;58.60
71563;DHT22;59391;52.504;13.438;2023-03-23T12:49:33;16.90;57.20
71563;DHT22;59391;52.504;13.438;2023-03-23T12:55:27;16.90;59.90
71563;DHT22;59391;52.504;13.438;2023-03-23T12:58:05;16.90;60.80
71563;DHT22;59391;52.504;13.438;2023-03-23T13:00:50;17.00;60.30
71563;DHT22;59391;52.504;13.438;2023-03-23T13:03:38;17.10;59.70
71563;DHT22;59391;52.504;13.438;2023-03-23T13:07:01;17.20;61.40
71563;DHT22;59391;52.504;13.438;2023-03-23T13:09:24;17.30;56.70
71563;DHT22;59391;52.504;13.438;2023-03-23T13:11:56;17.30;58.80
71563;DHT22;59391;52.504;13.438;2023-03-23T13:17:48;17.50;58.10
71563;DHT22;59391;52.504;13.438;2023-03-23T13:23:20;17.90;56.10
71563;DHT22;59391;52.504;13.438;2023-03-23T13:25:52;18.10;53.90
71563;DHT22;59391;52.504;13.438;2023-03-23T13:28:28;18.30;55.90
71563;DHT22;59391;52.504;13.438;2023-03-23T13:31:00;18.50;55.40
71563;DHT22;59391;52.504;13.438;2023-03-23T13:33:37;18.60;53.60
71563;DHT22;59391;52.504;13.438;2023-03-23T13:36:11;18.60;49.70
71563;DHT22;59391;52.504;13.438;2023-03-23T13:38:46;18.50;50.80
71563;DHT22;59391;52.504;13.438;2023-03-23T13:41:17;18.60;49.00
71563;DHT22;59391;52.504;13.438;2023-03-23T13:43:45;18.70;50.20
71563;DHT22;59391;52.504;13.438;2023-03-23T13:46:26;18.80;48.50
71563;DHT22;59391;52.504;13.438;2023-03-23T13:49:17;18.90;47.00
71563;DHT22;59391;52.504;13.438;2023-03-23T13:51:52;19.10;46.10
71563;DHT22;59391;52.504;13.438;2023-03-23T13:54:41;19.30;45.90
71563;DHT22;59391;52.504;13.438;2023-03-23T13:57:34;19.40;43.90
71563;DHT22;59391;52.504;13.438;2023-03-23T14:00:35;19.50;44.70
71563;DHT22;59391;52.504;13.438;2023-03-23T14:03:18;19.60;43.10
71563;DHT22;59391;52.504;13.438;2023-03-23T14:10:59;19.70;42.80
71563;DHT22;59391;52.504;13.438;2023-03-23T14:13:34;19.70;42.30
71563;DHT22;59391;52.504;13.438;2023-03-23T14:16:22;19.70;43.80
71563;DHT22;59391;52.504;13.438;2023-03-23T14:18:58;19.80;41.20
71563;DHT22;59391;52.504;13.438;2023-03-23T14:21:35;19.90;40.80
71563;DHT22;59391;52.504;13.438;2023-03-23T14:24:15;20.00;41.00
71563;DHT22;59391;52.504;13.438;2023-03-23T14:26:44;20.10;42.20
71563;DHT22;59391;52.504;13.438;2023-03-23T14:29:13;20.20;41.10
71563;DHT22;59391;52.504;13.438;2023-03-23T14:31:40;20.30;40.90
71563;DHT22;59391;52.504;13.438;2023-03-23T14:34:19;20.40;40.80
71563;DHT22;59391;52.504;13.438;2023-03-23T14:36:47;20.50;40.20
71563;DHT22;59391;52.504;13.438;2023-03-23T14:41:48;20.10;40.90
71563;DHT22;59391;52.504;13.438;2023-03-23T14:44:18;19.90;41.80
71563;DHT22;59391;52.504;13.438;2023-03-23T14:46:49;19.70;42.00
71563;DHT22;59391;52.504;13.438;2023-03-23T14:49:17;19.50;42.80
71563;DHT22;59391;52.504;13.438;2023-03-23T14:51:54;19.30;42.90
71563;DHT22;59391;52.504;13.438;2023-03-23T14:54:26;19.10;43.00
71563;DHT22;59391;52.504;13.438;2023-03-23T14:57:05;18.90;44.00
71563;DHT22;59391;52.504;13.438;2023-03-23T14:59:40;18.70;45.10
71563;DHT22;59391;52.504;13.438;2023-03-23T15:02:23;18.50;45.70
71563;DHT22;59391;52.504;13.438;2023-03-23T15:05:08;18.40;46.40
71563;DHT22;59391;52.504;13.438;2023-03-23T15:07:40;18.30;47.20
71563;DHT22;59391;52.504;13.438;2023-03-23T15:10:09;18.20;46.90
71563;DHT22;59391;52.504;13.438;2023-03-23T15:12:43;18.10;47.40
71563;DHT22;59391;52.504;13.438;2023-03-23T15:15:21;18.20;47.60
71563;DHT22;59391;52.504;13.438;2023-03-23T15:17:50;18.40;47.40
71563;DHT22;59391;52.504;13.438;2023-03-23T15:20:28;18.50;47.10
71563;DHT22;59391;52.504;13.438;2023-03-23T15:22:55;18.70;47.40
71563;DHT22;59391;52.504;13.438;2023-03-23T15:32:54;19.10;45.40
71563;DHT22;59391;52.504;13.438;2023-03-23T15:35:26;19.20;44.80
71563;DHT22;59391;52.504;13.438;2023-03-23T15:38:02;19.40;43.80
71563;DHT22;59391;52.504;13.438;2023-03-23T15:40:37;19.60;44.00
71563;DHT22;59391;52.504;13.438;2023-03-23T15:45:58;19.60;41.70
71563;DHT22;59391;52.504;13.438;2023-03-23T15:48:45;19.60;41.10
71563;DHT22;59391;52.504;13.438;2023-03-23T15:51:13;19.60;41.00
71563;DHT22;59391;52.504;13.438;2023-03-23T15:53:41;19.60;40.70
71563;DHT22;59391;52.504;13.438;2023-03-23T15:56:09;19.50;41.00
71563;DHT22;59391;52.504;13.438;2023-03-23T15:58:36;19.40;40.90
71563;DHT22;59391;52.504;13.438;2023-03-23T16:01:07;19.30;40.90
71563;DHT22;59391;52.504;13.438;2023-03-23T16:03:47;19.20;41.60
71563;DHT22;59391;52.504;13.438;2023-03-23T16:06:17;19.10;42.10
71563;DHT22;59391;52.504;13.438;2023-03-23T16:08:44;19.00;42.30
71563;DHT22;59391;52.504;13.438;2023-03-23T16:11:12;18.90;42.20
71563;DHT22;59391;52.504;13.438;2023-03-23T16:13:38;18.80;42.00
71563;DHT22;59391;52.504;13.438;2023-03-23T16:16:06;18.80;41.80
71563;DHT22;59391;52.504;13.438;2023-03-23T16:18:55;18.70;42.00
71563;DHT22;59391;52.504;13.438;2023-03-23T16:21:21;18.60;41.70
71563;DHT22;59391;52.504;13.438;2023-03-23T16:23:47;18.50;41.90
71563;DHT22;59391;52.504;13.438;2023-03-23T16:26:14;18.50;41.80
71563;DHT22;59391;52.504;13.438;2023-03-23T16:28:41;18.50;41.60
71563;DHT22;59391;52.504;13.438;2023-03-23T16:31:08;18.40;42.00
71563;DHT22;59391;52.504;13.438;2023-03-23T16:33:34;18.40;41.90
71563;DHT22;59391;52.504;13.438;2023-03-23T16:36:01;18.40;42.40
71563;DHT22;59391;52.504;13.438;2023-03-23T16:38:27;18.40;42.20
71563;DHT22;59391;52.504;13.438;2023-03-23T16:40:52;18.40;42.60
71563;DHT22;59391;52.504;13.438;2023-03-23T16:43:18;18.40;42.70
71563;DHT22;59391;52.504;13.438;2023-03-23T16:45:45;18.40;43.00
71563;DHT22;59391;52.504;13.438;2023-03-23T16:48:13;18.40;42.90
71563;DHT22;59391;52.504;13.438;2023-03-23T16:50:41;18.40;43.30
71563;DHT22;59391;52.504;13.438;2023-03-23T16:53:09;18.40;42.80
71563;DHT22;59391;52.504;13.438;2023-03-23T16:55:36;18.40;43.30